createdAt,value
2023-02-22T00:00:22.968Z,52.26
2023-02-22T00:03:17.905Z,52.10
2023-02-22T00:05:47.398Z,52.20
2023-02-22T00:08:15.016Z,52.45
2023-02-22T00:10:41.819Z,51.96
2023-02-22T00:13:09.909Z,52.28
2023-02-22T00:15:36.936Z,52.25
2023-02-22T00:18:05.023Z,52.28
2023-02-22T00:20:31.824Z,51.93
2023-02-22T00:23:01.466Z,52.23
2023-02-22T00:25:28.267Z,52.20
2023-02-22T00:27:56.276Z,52.28
2023-02-22T00:30:26.811Z,52.01
2023-02-22T00:32:55.957Z,52.35
2023-02-22T00:35:24.824Z,52.20
2023-02-22T00:37:52.815Z,52.21
2023-02-22T00:40:21.652Z,52.18
2023-02-22T00:42:48.787Z,52.14
2023-02-22T00:45:22.308Z,52.04
2023-02-22T00:47:49.467Z,52.20
2023-02-22T00:50:19.171Z,52.38
2023-02-22T00:52:46.311Z,52.51
2023-02-22T00:55:19.037Z,52.27
2023-02-22T00:57:46.186Z,52.11
2023-02-22T01:00:18.724Z,52.46
2023-02-22T01:02:50.803Z,52.58
2023-02-22T01:05:21.096Z,52.40
2023-02-22T01:07:48.857Z,52.50
2023-02-22T01:10:16.549Z,52.40
2023-02-22T01:12:43.713Z,52.45
2023-02-22T01:15:11.134Z,52.40
2023-02-22T01:17:39.213Z,52.42
2023-02-22T01:20:12.895Z,52.52
2023-02-22T01:22:47.607Z,52.80
2023-02-22T01:25:19.641Z,52.27
2023-02-22T01:27:46.825Z,52.49
2023-02-22T01:30:14.351Z,52.59
2023-02-22T01:32:42.103Z,52.41
2023-02-22T01:35:11.804Z,52.44
2023-02-22T01:37:39.217Z,52.49
2023-02-22T01:40:07.348Z,52.46
2023-02-22T01:42:34.465Z,52.66
2023-02-22T01:45:35.976Z,52.72
2023-02-22T01:48:10.408Z,52.45
2023-02-22T01:50:39.998Z,52.81
2023-02-22T01:53:07.614Z,52.62
2023-02-22T01:55:34.367Z,52.46
2023-02-22T01:58:02.058Z,52.75
2023-02-22T02:00:28.880Z,52.44
2023-02-22T02:03:00.219Z,52.60
2023-02-22T02:05:27.741Z,52.47
2023-02-22T02:07:54.773Z,52.50
2023-02-22T02:10:21.987Z,52.48
2023-02-22T02:12:49.893Z,52.51
2023-02-22T02:15:25.735Z,52.68
2023-02-22T02:17:53.915Z,52.69
2023-02-22T02:20:35.213Z,52.75
2023-02-22T02:23:36.823Z,52.67
2023-02-22T02:26:14.399Z,52.64
2023-02-22T02:29:12.627Z,52.55
2023-02-22T02:32:16.835Z,52.46
2023-02-22T02:34:51.018Z,52.69
2023-02-22T02:37:26.967Z,52.29
2023-02-22T02:39:54.058Z,52.86
2023-02-22T02:42:22.839Z,52.73
2023-02-22T02:44:53.663Z,52.86
2023-02-22T02:47:26.479Z,52.64
2023-02-22T02:50:10.325Z,52.68
2023-02-22T02:52:37.405Z,52.83
2023-02-22T02:55:04.853Z,52.79
2023-02-22T02:57:32.531Z,52.78
2023-02-22T02:59:59.623Z,53.07
2023-02-22T03:02:47.425Z,52.92
2023-02-22T03:05:37.350Z,52.78
2023-02-22T03:08:16.193Z,52.74
2023-02-22T03:11:07.038Z,52.90
2023-02-22T03:13:56.738Z,52.72
2023-02-22T03:16:32.900Z,52.86
2023-02-22T03:19:08.334Z,52.77
2023-02-22T03:21:55.012Z,52.87
2023-02-22T03:24:43.164Z,52.89
2023-02-22T03:27:13.081Z,52.87
2023-02-22T03:29:41.112Z,53.15
2023-02-22T03:32:10.785Z,52.70
2023-02-22T03:34:43.032Z,53.24
2023-02-22T03:37:18.126Z,53.10
2023-02-22T03:39:44.923Z,52.89
2023-02-22T03:42:29.617Z,53.03
2023-02-22T03:44:58.197Z,52.87
2023-02-22T03:47:46.172Z,53.00
2023-02-22T03:50:15.857Z,53.03
2023-02-22T03:52:47.445Z,53.16
2023-02-22T03:55:17.703Z,52.80
2023-02-22T03:57:56.956Z,52.93
2023-02-22T04:00:26.012Z,52.89
2023-02-22T04:02:53.138Z,53.04
2023-02-22T04:08:06.419Z,53.16
2023-02-22T04:10:33.683Z,53.28
2023-02-22T04:13:01.036Z,53.08
2023-02-22T04:15:28.004Z,53.06
2023-02-22T04:17:55.234Z,53.02
2023-02-22T04:20:25.541Z,53.29
2023-02-22T04:22:53.707Z,53.06
2023-02-22T04:25:21.259Z,53.17
2023-02-22T04:27:48.640Z,52.78
2023-02-22T04:30:17.345Z,53.19
2023-02-22T04:32:44.415Z,53.09
2023-02-22T04:35:11.272Z,53.08
2023-02-22T04:37:38.358Z,53.34
2023-02-22T04:40:08.534Z,53.05
2023-02-22T04:42:36.276Z,53.38
2023-02-22T04:45:08.013Z,53.40
2023-02-22T04:47:35.922Z,52.94
2023-02-22T04:50:03.811Z,53.24
2023-02-22T04:52:30.984Z,53.22
2023-02-22T04:54:57.722Z,53.12
2023-02-22T04:57:24.798Z,53.40
2023-02-22T04:59:51.550Z,53.10
2023-02-22T05:02:18.967Z,53.12
2023-02-22T05:04:45.789Z,53.21
2023-02-22T05:07:12.882Z,53.14
2023-02-22T05:09:39.649Z,53.12
2023-02-22T05:12:07.055Z,52.96
2023-02-22T05:14:33.829Z,53.24
2023-02-22T05:17:01.256Z,53.16
2023-02-22T05:19:28.148Z,53.12
2023-02-22T05:21:56.561Z,53.13
2023-02-22T05:24:23.362Z,53.25
2023-02-22T05:26:51.373Z,53.20
2023-02-22T05:29:18.196Z,52.95
2023-02-22T05:31:45.430Z,53.35
2023-02-22T05:34:12.446Z,53.30
2023-02-22T05:36:39.467Z,53.51
2023-02-22T05:39:06.339Z,53.19
2023-02-22T05:41:33.397Z,53.26
2023-02-22T05:44:00.207Z,53.04
2023-02-22T05:46:27.426Z,53.29
2023-02-22T05:48:54.204Z,53.20
2023-02-22T05:51:21.314Z,53.02
2023-02-22T05:53:48.254Z,53.13
2023-02-22T05:56:21.776Z,53.24
2023-02-22T05:58:48.546Z,52.95
2023-02-22T06:01:15.939Z,52.92
2023-02-22T06:03:42.770Z,53.22
2023-02-22T06:06:10.398Z,53.09
2023-02-22T06:08:37.271Z,53.00
2023-02-22T06:11:04.484Z,53.05
2023-02-22T06:13:31.305Z,53.17
2023-02-22T06:15:59.088Z,53.03
2023-02-22T06:18:26.748Z,52.94
2023-02-22T06:20:53.866Z,52.97
2023-02-22T06:23:20.648Z,52.78
2023-02-22T06:25:47.991Z,53.02
2023-02-22T06:28:15.748Z,52.94
2023-02-22T06:30:43.113Z,52.97
2023-02-22T06:33:10.608Z,53.03
2023-02-22T06:35:37.673Z,53.07
2023-02-22T06:38:05.548Z,52.93
2023-02-22T06:40:32.565Z,52.95
2023-02-22T06:42:59.959Z,53.13
2023-02-22T06:45:27.248Z,52.85
2023-02-22T06:47:54.485Z,53.15
2023-02-22T06:50:22.853Z,53.12
2023-02-22T06:52:49.677Z,53.06
2023-02-22T06:55:21.291Z,53.20
2023-02-22T06:57:48.250Z,53.28
2023-02-22T07:00:17.293Z,53.20
2023-02-22T07:02:44.071Z,53.14
2023-02-22T07:05:12.825Z,53.30
2023-02-22T07:07:39.834Z,53.44
2023-02-22T07:10:08.204Z,53.16
2023-02-22T07:12:35.538Z,53.39
2023-02-22T07:15:02.705Z,53.32
2023-02-22T07:17:29.558Z,53.29
2023-02-22T07:19:56.737Z,53.40
2023-02-22T07:22:23.583Z,53.27
2023-02-22T07:24:50.724Z,53.32
2023-02-22T07:27:17.994Z,53.63
2023-02-22T07:29:45.043Z,53.26
2023-02-22T07:32:11.831Z,53.43
2023-02-22T07:34:39.073Z,53.25
2023-02-22T07:37:05.832Z,53.31
2023-02-22T07:39:34.487Z,53.20
2023-02-22T07:42:01.246Z,53.17
2023-02-22T07:44:28.375Z,53.28
2023-02-22T07:46:55.128Z,53.17
2023-02-22T07:49:22.164Z,53.38
2023-02-22T07:51:48.960Z,53.30
2023-02-22T07:54:16.049Z,53.26
2023-02-22T07:56:49.442Z,53.18
2023-02-22T07:59:16.631Z,53.14
2023-02-22T08:01:43.469Z,53.10
2023-02-22T08:04:10.599Z,53.15
2023-02-22T08:06:37.379Z,53.09
2023-02-22T08:09:04.456Z,53.06
2023-02-22T08:11:31.237Z,52.93
2023-02-22T08:13:58.317Z,52.85
2023-02-22T08:16:25.081Z,52.75
2023-02-22T08:18:52.191Z,52.80
2023-02-22T08:21:19.235Z,52.76
2023-02-22T08:23:47.713Z,52.49
2023-02-22T08:26:15.737Z,52.43
2023-02-22T08:28:43.249Z,52.37
2023-02-22T08:31:10.666Z,52.45
2023-02-22T08:33:37.892Z,52.45
2023-02-22T08:36:05.025Z,52.58
2023-02-22T08:38:34.006Z,52.45
2023-02-22T08:41:00.817Z,52.37
2023-02-22T08:43:28.554Z,52.13
2023-02-22T08:45:57.398Z,52.27
2023-02-22T08:48:24.843Z,52.26
2023-02-22T08:50:51.890Z,52.13
2023-02-22T08:53:19.099Z,52.12
2023-02-22T08:55:45.957Z,52.00
2023-02-22T08:58:13.315Z,52.13
2023-02-22T09:00:40.604Z,51.99
2023-02-22T09:03:13.402Z,52.04
2023-02-22T09:05:41.268Z,52.08
2023-02-22T09:08:08.682Z,51.87
2023-02-22T09:10:35.859Z,51.83
2023-02-22T09:13:04.096Z,51.87
2023-02-22T09:15:31.263Z,51.81
2023-02-22T09:17:58.472Z,51.86
2023-02-22T09:20:25.309Z,51.81
2023-02-22T09:22:52.756Z,51.75
2023-02-22T09:25:22.971Z,51.72
2023-02-22T09:27:51.230Z,51.81
2023-02-22T09:30:26.323Z,52.01
2023-02-22T09:32:59.308Z,51.91
2023-02-22T09:35:29.008Z,51.96
2023-02-22T09:37:56.816Z,51.77
2023-02-22T09:40:29.832Z,51.76
2023-02-22T09:43:07.271Z,51.56
2023-02-22T09:45:38.138Z,51.59
2023-02-22T09:48:20.920Z,51.73
2023-02-22T09:50:48.999Z,51.37
2023-02-22T09:53:29.339Z,51.30
2023-02-22T09:56:06.690Z,51.29
2023-02-22T09:58:36.817Z,51.27
2023-02-22T10:01:15.889Z,51.09
2023-02-22T10:04:01.173Z,51.09
2023-02-22T10:06:28.351Z,51.05
2023-02-22T10:08:57.644Z,50.96
2023-02-22T10:11:56.211Z,50.92
2023-02-22T10:14:55.512Z,50.85
2023-02-22T10:17:29.707Z,50.72
2023-02-22T10:20:22.611Z,50.99
2023-02-22T10:23:01.648Z,50.89
2023-02-22T10:25:28.868Z,50.75
2023-02-22T10:28:00.777Z,50.42
2023-02-22T10:30:34.337Z,50.29
2023-02-22T10:33:22.059Z,50.21
2023-02-22T10:35:49.350Z,50.43
2023-02-22T10:38:26.726Z,50.50
2023-02-22T10:41:04.295Z,50.46
2023-02-22T10:43:31.199Z,50.44
2023-02-22T10:46:01.420Z,50.52
2023-02-22T10:48:28.743Z,50.26
2023-02-22T10:51:02.110Z,50.00
2023-02-22T10:53:29.886Z,49.82
2023-02-22T10:56:19.213Z,49.77
2023-02-22T10:58:53.620Z,50.00
2023-02-22T11:01:33.001Z,49.83
2023-02-22T11:04:10.027Z,49.77
2023-02-22T11:06:37.243Z,49.62
2023-02-22T11:09:11.848Z,49.84
2023-02-22T11:11:41.281Z,50.23
2023-02-22T11:14:10.804Z,49.72
2023-02-22T11:16:40.829Z,49.74
2023-02-22T11:19:25.253Z,49.77
2023-02-22T11:21:55.006Z,49.92
2023-02-22T11:24:30.339Z,49.59
2023-02-22T11:27:01.601Z,49.65
2023-02-22T11:29:33.639Z,49.84
2023-02-22T11:32:02.136Z,49.94
2023-02-22T11:34:39.682Z,49.55
2023-02-22T11:37:26.014Z,49.33
2023-02-22T11:40:19.885Z,48.95
2023-02-22T11:42:46.972Z,49.01
2023-02-22T11:45:23.720Z,49.37
2023-02-22T11:47:52.616Z,49.50
2023-02-22T11:50:29.084Z,49.00
2023-02-22T11:53:09.842Z,48.27
2023-02-22T11:55:45.040Z,48.53
2023-02-22T11:58:27.255Z,48.52
2023-02-22T12:00:58.828Z,48.72
2023-02-22T12:03:54.258Z,48.45
2023-02-22T12:06:27.131Z,48.64
2023-02-22T12:09:06.176Z,48.38
2023-02-22T12:11:57.277Z,47.92
2023-02-22T12:14:52.655Z,47.95
2023-02-22T12:17:26.423Z,47.89
2023-02-22T12:19:56.416Z,48.05
2023-02-22T12:22:26.353Z,47.85
2023-02-22T12:25:09.098Z,47.67
2023-02-22T12:27:42.673Z,47.60
2023-02-22T12:30:29.366Z,47.67
2023-02-22T12:33:01.198Z,47.29
2023-02-22T12:35:30.279Z,47.35
2023-02-22T12:38:04.693Z,47.44
2023-02-22T12:40:57.118Z,47.29
2023-02-22T12:43:33.201Z,47.79
2023-02-22T12:46:04.724Z,47.33
2023-02-22T12:48:35.275Z,47.62
2023-02-22T12:51:24.627Z,47.03
2023-02-22T12:54:42.155Z,47.42
2023-02-22T12:57:20.156Z,47.30
2023-02-22T12:59:49.536Z,47.34
2023-02-22T13:02:54.478Z,47.49
2023-02-22T13:05:21.540Z,47.40
2023-02-22T13:08:08.774Z,47.64
2023-02-22T13:10:58.910Z,47.45
2023-02-22T13:13:54.944Z,47.66
2023-02-22T13:16:25.344Z,47.63
2023-02-22T13:19:01.545Z,47.24
2023-02-22T13:21:34.168Z,47.62
2023-02-22T13:24:12.634Z,47.81
2023-02-22T13:26:50.729Z,47.83
2023-02-22T13:29:23.264Z,48.01
2023-02-22T13:32:22.068Z,47.28
2023-02-22T13:35:04.880Z,47.51
2023-02-22T13:37:35.777Z,47.55
2023-02-22T13:40:28.496Z,47.75
2023-02-22T13:43:07.480Z,47.82
2023-02-22T13:46:03.876Z,48.07
2023-02-22T13:48:49.054Z,47.61
2023-02-22T13:51:34.408Z,47.42
2023-02-22T13:54:14.274Z,47.23
2023-02-22T13:56:45.378Z,48.01
2023-02-22T13:59:30.366Z,47.71
2023-02-22T14:01:58.103Z,47.83
2023-02-22T14:04:27.946Z,48.10
2023-02-22T14:06:55.972Z,48.29
2023-02-22T14:09:48.324Z,47.96
2023-02-22T14:12:30.657Z,47.99
2023-02-22T14:15:29.255Z,48.07
2023-02-22T14:17:56.965Z,47.88
2023-02-22T14:20:36.106Z,48.11
2023-02-22T14:23:40.279Z,47.50
2023-02-22T14:26:19.414Z,47.87
2023-02-22T14:28:59.725Z,47.96
2023-02-22T14:31:37.048Z,47.33
2023-02-22T14:34:13.949Z,47.25
2023-02-22T14:36:51.382Z,47.60
2023-02-22T14:39:23.596Z,47.04
2023-02-22T14:41:56.449Z,47.13
2023-02-22T14:44:26.444Z,47.04
2023-02-22T14:46:54.942Z,47.14
2023-02-22T14:49:22.985Z,46.93
2023-02-22T14:51:56.380Z,47.06
2023-02-22T14:54:30.632Z,47.50
2023-02-22T14:57:14.737Z,46.99
2023-02-22T14:59:55.089Z,47.53
2023-02-22T15:02:25.978Z,46.73
2023-02-22T15:04:54.126Z,47.32
2023-02-22T15:07:27.542Z,47.47
2023-02-22T15:10:20.672Z,47.74
2023-02-22T15:13:09.684Z,47.08
2023-02-22T15:15:46.946Z,47.21
2023-02-22T15:18:35.409Z,47.42
2023-02-22T15:21:16.316Z,47.21
2023-02-22T15:23:44.646Z,47.48
2023-02-22T15:26:35.130Z,47.51
2023-02-22T15:29:02.328Z,47.30
2023-02-22T15:31:34.317Z,47.39
2023-02-22T15:34:18.998Z,47.83
2023-02-22T15:36:46.613Z,47.63
2023-02-22T15:39:22.900Z,47.83
2023-02-22T15:41:51.130Z,47.47
2023-02-22T15:44:23.559Z,47.74
2023-02-22T15:46:52.258Z,47.69
2023-02-22T15:49:20.489Z,48.16
2023-02-22T15:51:49.259Z,47.75
2023-02-22T15:54:26.465Z,48.05
2023-02-22T15:56:57.295Z,48.24
2023-02-22T15:59:29.643Z,48.08
2023-02-22T16:01:57.638Z,48.27
2023-02-22T16:04:27.051Z,48.62
2023-02-22T16:07:01.900Z,48.50
2023-02-22T16:09:30.468Z,48.38
2023-02-22T16:12:10.817Z,48.42
2023-02-22T16:14:40.408Z,48.42
2023-02-22T16:17:30.768Z,48.23
2023-02-22T16:19:59.118Z,48.00
2023-02-22T16:22:36.485Z,48.42
2023-02-22T16:25:16.565Z,48.19
2023-02-22T16:27:55.813Z,48.51
2023-02-22T16:30:36.616Z,48.24
2023-02-22T16:33:05.605Z,48.47
2023-02-22T16:35:35.646Z,48.40
2023-02-22T16:38:04.452Z,48.46
2023-02-22T16:40:34.596Z,48.47
2023-02-22T16:43:07.061Z,48.41
2023-02-22T16:45:34.380Z,48.47
2023-02-22T16:48:04.910Z,48.50
2023-02-22T16:50:31.779Z,48.55
2023-02-22T16:52:58.878Z,48.42
2023-02-22T16:55:25.710Z,48.26
2023-02-22T16:57:55.239Z,48.30
2023-02-22T17:00:31.293Z,48.35
2023-02-22T17:02:59.555Z,48.57
2023-02-22T17:05:26.387Z,48.37
2023-02-22T17:07:53.503Z,48.55
2023-02-22T17:10:20.322Z,48.59
2023-02-22T17:12:48.004Z,48.67
2023-02-22T17:15:35.099Z,48.35
2023-02-22T17:18:05.986Z,48.38
2023-02-22T17:20:32.793Z,48.73
2023-02-22T17:23:01.497Z,48.34
2023-02-22T17:25:34.624Z,48.35
2023-02-22T17:28:01.699Z,48.46
2023-02-22T17:30:28.545Z,48.41
2023-02-22T17:33:03.590Z,48.62
2023-02-22T17:35:36.900Z,48.65
2023-02-22T17:38:08.392Z,48.86
2023-02-22T17:40:36.576Z,48.65
2023-02-22T17:43:04.117Z,49.00
2023-02-22T17:45:31.124Z,48.61
2023-02-22T17:48:01.067Z,48.76
2023-02-22T17:50:27.927Z,48.84
2023-02-22T17:52:55.087Z,48.84
2023-02-22T17:55:22.397Z,48.71
2023-02-22T17:57:56.892Z,48.86
2023-02-22T18:00:33.100Z,48.43
2023-02-22T18:03:05.578Z,48.55
2023-02-22T18:05:35.318Z,48.95
2023-02-22T18:08:02.441Z,48.95
2023-02-22T18:10:29.262Z,48.89
2023-02-22T18:12:56.855Z,48.78
2023-02-22T18:15:23.676Z,48.98
2023-02-22T18:17:50.747Z,48.64
2023-02-22T18:20:31.008Z,48.42
2023-02-22T18:22:58.900Z,48.67
2023-02-22T18:25:26.003Z,48.68
2023-02-22T18:27:54.990Z,48.48
2023-02-22T18:30:21.928Z,48.51
2023-02-22T18:32:49.067Z,48.69
2023-02-22T18:35:15.905Z,48.58
2023-02-22T18:37:44.478Z,48.51
2023-02-22T18:40:11.277Z,48.61
2023-02-22T18:42:40.238Z,48.86
2023-02-22T18:45:07.690Z,48.44
2023-02-22T18:47:39.565Z,48.68
2023-02-22T18:50:07.204Z,48.82
2023-02-22T18:52:35.663Z,48.76
2023-02-22T18:55:02.493Z,49.02
2023-02-22T18:57:29.617Z,48.83
2023-02-22T18:59:56.874Z,48.81
2023-02-22T19:02:25.546Z,49.00
2023-02-22T19:04:52.590Z,49.00
2023-02-22T19:07:20.690Z,48.93
2023-02-22T19:09:51.044Z,48.89
2023-02-22T19:12:19.003Z,48.85
2023-02-22T19:14:48.558Z,48.88
2023-02-22T19:17:16.167Z,48.93
2023-02-22T19:19:43.809Z,49.10
2023-02-22T19:22:15.097Z,48.95
2023-02-22T19:24:42.945Z,48.75
2023-02-22T19:27:11.024Z,48.59
2023-02-22T19:29:40.670Z,48.83
2023-02-22T19:32:08.904Z,48.72
2023-02-22T19:34:37.044Z,48.76
2023-02-22T19:37:05.469Z,48.59
2023-02-22T19:39:33.040Z,48.94
2023-02-22T19:42:00.524Z,48.99
2023-02-22T19:44:27.516Z,49.40
2023-02-22T19:46:57.561Z,49.17
2023-02-22T19:51:58.189Z,49.36
2023-02-22T19:54:24.976Z,49.18
2023-02-22T19:56:52.139Z,49.13
2023-02-22T19:59:22.798Z,49.30
2023-02-22T20:01:52.614Z,49.17
2023-02-22T20:04:21.415Z,49.55
2023-02-22T20:06:50.643Z,49.39
2023-02-22T20:09:23.365Z,49.42
2023-02-22T20:11:51.916Z,49.37
2023-02-22T20:14:21.147Z,49.60
2023-02-22T20:16:48.353Z,49.58
2023-02-22T20:19:15.162Z,49.50
2023-02-22T20:21:42.868Z,49.56
2023-02-22T20:24:12.088Z,49.37
2023-02-22T20:26:40.001Z,49.67
2023-02-22T20:29:07.231Z,49.88
2023-02-22T20:31:34.451Z,49.80
2023-02-22T20:34:01.833Z,49.74
2023-02-22T20:36:29.541Z,49.90
2023-02-22T20:38:58.037Z,49.97
2023-02-22T20:41:27.099Z,49.69
2023-02-22T20:43:55.218Z,49.50
2023-02-22T20:46:23.722Z,49.54
2023-02-22T20:48:55.289Z,49.46
2023-02-22T20:51:22.595Z,49.58
2023-02-22T20:53:50.084Z,49.50
2023-02-22T20:56:21.780Z,49.12
2023-02-22T20:58:48.692Z,49.43
2023-02-22T21:01:17.219Z,49.71
2023-02-22T21:03:44.183Z,49.72
2023-02-22T21:06:15.289Z,49.75
2023-02-22T21:08:43.535Z,49.79
2023-02-22T21:11:14.592Z,50.34
2023-02-22T21:13:41.610Z,49.97
2023-02-22T21:16:10.389Z,50.08
2023-02-22T21:18:37.353Z,50.15
2023-02-22T21:21:12.647Z,49.90
2023-02-22T21:23:40.028Z,49.83
2023-02-22T21:26:07.850Z,49.84
2023-02-22T21:28:50.441Z,50.05
2023-02-22T21:31:23.461Z,49.79
2023-02-22T21:33:51.841Z,49.79
2023-02-22T21:36:19.043Z,49.90
2023-02-22T21:38:53.384Z,50.21
2023-02-22T21:41:21.362Z,50.03
2023-02-22T21:43:51.761Z,49.98
2023-02-22T21:46:19.197Z,49.72
2023-02-22T21:48:48.810Z,49.58
2023-02-22T21:51:17.808Z,49.80
2023-02-22T21:53:48.648Z,49.82
2023-02-22T21:56:18.857Z,49.62
2023-02-22T21:58:46.467Z,49.70
2023-02-22T22:01:17.598Z,49.34
2023-02-22T22:03:45.303Z,49.58
2023-02-22T22:06:13.691Z,49.30
2023-02-22T22:08:41.731Z,49.47
2023-02-22T22:11:10.174Z,49.31
2023-02-22T22:13:38.223Z,49.47
2023-02-22T22:16:10.595Z,49.47
2023-02-22T22:18:38.161Z,49.58
2023-02-22T22:21:16.246Z,49.52
2023-02-22T22:23:47.087Z,49.60
2023-02-22T22:26:17.003Z,49.33
2023-02-22T22:28:45.094Z,49.49
2023-02-22T22:31:12.547Z,49.72
2023-02-22T22:33:41.074Z,49.72
2023-02-22T22:36:09.389Z,49.81
2023-02-22T22:38:39.584Z,49.59
2023-02-22T22:41:07.720Z,49.62
2023-02-22T22:43:35.429Z,49.80
2023-02-22T22:46:03.544Z,49.71
2023-02-22T22:48:31.458Z,49.79
2023-02-22T22:51:02.659Z,49.91
2023-02-22T22:53:31.350Z,50.01
2023-02-22T22:56:05.390Z,50.21
2023-02-22T22:58:33.848Z,49.97
2023-02-22T23:01:05.928Z,50.10
2023-02-22T23:03:38.845Z,49.92
2023-02-22T23:06:06.034Z,49.65
2023-02-22T23:08:43.146Z,49.83
2023-02-22T23:11:10.911Z,49.70
2023-02-22T23:13:38.343Z,49.66
2023-02-22T23:16:12.055Z,49.63
2023-02-22T23:18:43.108Z,49.03
2023-02-22T23:21:10.706Z,49.42
2023-02-22T23:23:37.808Z,49.08
2023-02-22T23:26:15.999Z,49.52
2023-02-22T23:28:42.762Z,49.94
2023-02-22T23:31:10.497Z,49.66
2023-02-22T23:33:38.308Z,49.84
2023-02-22T23:36:06.319Z,49.72
2023-02-22T23:38:34.865Z,50.24
2023-02-22T23:41:03.050Z,50.18
2023-02-22T23:43:32.579Z,49.98
2023-02-22T23:46:04.006Z,50.42
2023-02-22T23:48:30.741Z,50.11
2023-02-22T23:51:00.672Z,50.07
2023-02-22T23:53:29.971Z,49.94
2023-02-22T23:55:57.070Z,49.81
2023-02-22T23:58:27.013Z,49.47
